Time;durP1;ratioP1;P1;durP2;ratioP2;P2;SDS_P1;SDS_P2;PMS_P1;PMS_P2;Temp;Humidity;BMP_temperature;BMP_pressure;BME280_temperature;BME280_humidity;BME280_pressure;Samples;Min_cycle;Max_cycle;Signal;HPM_P1;HPM_P2
2022/11/03 00:01:49;;;;;;;11.80;3.17;;;8.40;99.90;;;;;;5005527;28;20296;-85
2022/11/03 00:04:21;;;;;;;7.78;2.08;;;8.40;99.90;;;;;;5004945;28;20030;-84
2022/11/03 00:06:54;;;;;;;11.13;2.38;;;8.30;99.90;;;;;;5006520;28;20041;-85
2022/11/03 00:09:21;;;;;;;12.32;2.70;;;8.40;99.90;;;;;;4997376;28;20077;-85
2022/11/03 00:11:49;;;;;;;13.15;3.13;;;8.30;99.90;;;;;;5009958;28;20045;-84
2022/11/03 00:14:21;;;;;;;15.65;3.47;;;8.30;99.90;;;;;;5006229;28;20209;-83
2022/11/03 00:16:47;;;;;;;19.63;3.78;;;8.40;99.90;;;;;;5004601;28;20037;-85
2022/11/03 00:19:15;;;;;;;13.55;2.85;;;8.50;99.90;;;;;;5011809;28;20033;-85
2022/11/03 00:21:41;;;;;;;8.23;2.17;;;8.50;99.90;;;;;;5005699;28;20030;-84
2022/11/03 00:24:07;;;;;;;16.30;2.97;;;8.50;99.90;;;;;;5012022;28;20037;-86
2022/11/03 00:26:34;;;;;;;11.13;2.42;;;8.50;99.90;;;;;;5006731;28;20104;-84
2022/11/03 00:29:05;;;;;;;8.10;2.50;;;8.40;99.90;;;;;;5011413;28;20037;-85
2022/11/03 00:31:32;;;;;;;13.13;2.47;;;8.30;99.90;;;;;;4990199;28;20027;-85
2022/11/03 00:33:59;;;;;;;12.07;2.58;;;8.20;99.90;;;;;;5004719;28;20319;-84
2022/11/03 00:36:29;;;;;;;8.55;2.67;;;8.20;99.90;;;;;;5007246;28;20326;-85
2022/11/03 00:38:55;;;;;;;18.33;2.85;;;8.20;99.90;;;;;;5007748;28;20025;-86
2022/11/03 00:41:21;;;;;;;7.30;2.60;;;8.20;99.90;;;;;;5006128;28;20563;-85
2022/11/03 00:43:48;;;;;;;10.73;2.33;;;8.20;99.90;;;;;;5011163;28;20030;-85
2022/11/03 00:46:18;;;;;;;10.02;2.60;;;8.30;99.90;;;;;;5014724;28;20025;-84
2022/11/03 00:48:47;;;;;;;12.68;2.70;;;8.30;99.90;;;;;;5010353;28;20042;-83
2022/11/03 00:51:25;;;;;;;19.23;3.05;;;8.20;99.90;;;;;;5006349;28;20030;-85
2022/11/03 00:54:00;;;;;;;15.30;2.58;;;8.20;99.90;;;;;;5006777;28;20026;-85
2022/11/03 00:56:30;;;;;;;17.60;2.70;;;8.10;99.90;;;;;;5004623;28;20140;-84
2022/11/03 00:58:57;;;;;;;15.70;2.90;;;8.10;99.90;;;;;;5008405;28;20030;-85
2022/11/03 01:01:30;;;;;;;22.27;3.38;;;8.10;99.90;;;;;;5006926;28;20134;-85
2022/11/03 01:06:51;;;;;;;18.13;3.17;;;8.30;99.90;;;;;;5014521;28;20068;-85
2022/11/03 01:09:29;;;;;;;9.10;2.00;;;8.40;99.90;;;;;;5002222;28;20056;-85
2022/11/03 01:11:59;;;;;;;9.18;2.30;;;8.60;99.90;;;;;;5008863;28;20057;-86
2022/11/03 01:14:27;;;;;;;10.73;2.40;;;8.70;99.90;;;;;;5006741;28;20049;-86
2022/11/03 01:16:53;;;;;;;17.27;2.72;;;8.70;99.90;;;;;;5005959;28;20038;-84
2022/11/03 01:19:25;;;;;;;14.48;3.10;;;8.70;99.90;;;;;;5006848;28;20020;-84
2022/11/03 01:21:51;;;;;;;11.15;2.45;;;8.70;99.90;;;;;;5015092;28;20041;-85
2022/11/03 01:24:18;;;;;;;10.30;2.55;;;8.70;99.90;;;;;;5005604;28;20057;-85
2022/11/03 01:26:43;;;;;;;19.30;3.08;;;8.60;99.90;;;;;;5008216;28;20030;-85
2022/11/03 01:29:09;;;;;;;14.55;3.40;;;8.50;99.90;;;;;;5013483;28;20021;-85
2022/11/03 01:31:34;;;;;;;14.20;3.28;;;8.50;99.90;;;;;;5011797;28;20029;-85
2022/11/03 01:34:00;;;;;;;10.30;2.80;;;8.50;99.90;;;;;;5001977;28;20049;-85
2022/11/03 01:36:26;;;;;;;13.63;2.53;;;8.50;99.90;;;;;;4991585;28;20057;-85
2022/11/03 01:38:55;;;;;;;14.07;3.25;;;8.50;99.90;;;;;;4993285;28;20026;-85
2022/11/03 01:41:25;;;;;;;11.95;2.75;;;8.50;99.90;;;;;;4998221;28;20030;-84
2022/11/03 01:44:10;;;;;;;9.90;2.17;;;8.40;99.90;;;;;;5002168;28;20060;-86
2022/11/03 01:46:54;;;;;;;9.13;2.08;;;8.30;99.90;;;;;;4994642;28;20057;-85
2022/11/03 01:49:28;;;;;;;6.93;2.28;;;8.20;99.90;;;;;;4998022;28;20096;-85
2022/11/03 01:52:05;;;;;;;16.48;2.95;;;8.10;99.90;;;;;;4993410;28;20398;-85
2022/11/03 01:54:33;;;;;;;10.55;2.33;;;8.10;99.90;;;;;;4986551;28;20046;-84
2022/11/03 01:56:59;;;;;;;20.40;3.05;;;8.10;99.90;;;;;;4990598;28;20080;-85
2022/11/03 01:59:25;;;;;;;16.80;2.42;;;8.20;99.90;;;;;;4997894;28;20063;-85
2022/11/03 02:01:51;;;;;;;11.73;2.65;;;8.30;99.90;;;;;;4996966;28;20391;-85
2022/11/03 02:04:24;;;;;;;14.45;2.75;;;8.30;99.90;;;;;;4999267;28;20025;-84
2022/11/03 02:07:06;;;;;;;16.75;4.65;;;8.40;99.90;;;;;;4994719;28;20046;-86
2022/11/03 02:09:32;;;;;;;11.85;3.28;;;8.40;99.90;;;;;;5000374;28;20030;-85
2022/11/03 02:12:07;;;;;;;14.30;2.38;;;8.40;99.90;;;;;;4994580;28;20113;-85
2022/11/03 02:14:35;;;;;;;9.13;3.05;;;8.50;99.90;;;;;;4992997;28;20041;-85
2022/11/03 02:17:04;;;;;;;11.23;2.58;;;8.60;99.90;;;;;;4989133;28;20084;-86
2022/11/03 02:19:35;;;;;;;19.42;3.85;;;8.70;99.90;;;;;;4984260;28;20030;-85
2022/11/03 02:22:19;;;;;;;9.10;2.70;;;8.70;99.90;;;;;;4993726;28;20479;-85
2022/11/03 02:24:50;;;;;;;17.10;2.78;;;8.80;99.90;;;;;;4989913;28;20038;-85
2022/11/03 02:27:16;;;;;;;8.48;3.00;;;8.90;99.90;;;;;;4994092;28;20034;-85
2022/11/03 02:29:42;;;;;;;11.68;2.72;;;8.90;99.90;;;;;;4994495;28;20025;-85
2022/11/03 02:32:18;;;;;;;8.88;1.98;;;9.00;99.90;;;;;;4994803;28;20490;-85
2022/11/03 02:34:52;;;;;;;13.38;2.40;;;9.00;99.90;;;;;;4993945;28;20043;-85
2022/11/03 02:37:33;;;;;;;15.10;3.33;;;9.00;99.90;;;;;;4991354;28;20101;-85
2022/11/03 02:40:16;;;;;;;12.48;2.33;;;9.10;99.90;;;;;;4987271;28;20049;-85
2022/11/03 02:42:46;;;;;;;15.07;2.65;;;9.10;99.90;;;;;;4989672;28;20030;-85
2022/11/03 02:45:17;;;;;;;9.73;2.47;;;9.10;99.90;;;;;;4992488;28;20064;-84
2022/11/03 02:47:44;;;;;;;11.52;2.40;;;9.10;99.90;;;;;;4992851;28;20071;-85
2022/11/03 02:50:09;;;;;;;14.43;2.90;;;9.20;99.90;;;;;;4990624;28;20037;-85
2022/11/03 02:52:37;;;;;;;12.40;2.88;;;9.20;99.90;;;;;;4993855;28;20022;-85
2022/11/03 02:55:28;;;;;;;16.52;3.30;;;9.20;99.90;;;;;;4993276;28;20472;-83
2022/11/03 02:58:27;;;;;;;18.98;3.40;;;9.20;99.90;;;;;;4992607;28;20065;-85
2022/11/03 03:00:54;;;;;;;12.55;3.15;;;9.20;99.90;;;;;;4989608;28;20423;-85
2022/11/03 03:03:31;;;;;;;15.05;3.88;;;9.30;99.90;;;;;;4990411;28;20046;-85
2022/11/03 03:06:04;;;;;;;14.85;3.13;;;9.30;99.90;;;;;;4993313;28;20030;-86
2022/11/03 03:08:36;;;;;;;18.48;3.22;;;9.30;99.90;;;;;;4989676;28;20120;-85
2022/11/03 03:11:04;;;;;;;21.88;3.35;;;9.30;99.90;;;;;;4990808;28;20018;-84
2022/11/03 03:13:31;;;;;;;13.25;2.72;;;9.30;99.90;;;;;;4991092;28;20046;-85
2022/11/03 03:16:25;;;;;;;12.85;2.63;;;9.30;99.90;;;;;;4989947;28;20041;-84
2022/11/03 03:19:26;;;;;;;14.73;2.78;;;9.30;99.90;;;;;;4986045;28;20034;-84
2022/11/03 03:21:54;;;;;;;23.45;3.40;;;9.30;99.90;;;;;;4992136;28;20035;-86
2022/11/03 03:24:39;;;;;;;26.77;3.80;;;9.20;99.90;;;;;;4990463;28;20030;-86
2022/11/03 03:27:10;;;;;;;11.68;2.67;;;9.20;99.90;;;;;;4972446;28;20034;-85
2022/11/03 03:29:41;;;;;;;21.05;3.45;;;9.10;99.90;;;;;;4989607;28;20030;-85
2022/11/03 03:32:09;;;;;;;14.25;2.63;;;9.10;99.90;;;;;;4987538;28;20037;-85
2022/11/03 03:34:38;;;;;;;14.73;3.40;;;9.10;99.90;;;;;;4978072;28;20050;-86
2022/11/03 03:37:05;;;;;;;13.55;2.63;;;9.20;99.90;;;;;;4986846;28;20439;-85
2022/11/03 03:39:34;;;;;;;17.15;3.55;;;9.20;99.90;;;;;;4977502;28;20093;-84
2022/11/03 03:42:01;;;;;;;33.13;4.45;;;9.20;99.90;;;;;;4977558;28;20034;-84
2022/11/03 03:44:27;;;;;;;22.80;3.67;;;9.10;99.90;;;;;;4984078;28;20027;-86
2022/11/03 03:47:03;;;;;;;16.40;3.00;;;9.10;99.90;;;;;;4983944;28;20082;-85
2022/11/03 03:49:28;;;;;;;18.30;2.72;;;9.00;99.90;;;;;;4980590;28;20034;-84
2022/11/03 03:51:54;;;;;;;14.52;3.08;;;9.00;99.90;;;;;;4983477;28;20042;-85
2022/11/03 03:54:19;;;;;;;26.45;4.85;;;8.90;99.90;;;;;;4981211;28;20436;-87
2022/11/03 03:56:53;;;;;;;20.13;3.53;;;8.90;99.90;;;;;;4986011;28;20034;-84
2022/11/03 03:59:19;;;;;;;13.50;3.40;;;8.90;99.90;;;;;;4975941;28;20034;-81
2022/11/03 04:01:45;;;;;;;16.17;3.80;;;8.70;99.90;;;;;;4982729;28;20129;-85
2022/11/03 04:04:10;;;;;;;14.70;3.10;;;8.80;99.90;;;;;;4982547;28;20575;-87
2022/11/03 04:06:36;;;;;;;13.63;2.75;;;8.70;99.90;;;;;;4979418;28;20073;-86
2022/11/03 04:09:02;;;;;;;17.85;3.42;;;8.70;99.90;;;;;;4985734;28;20030;-85
2022/11/03 04:22:31;;;;;;;16.83;3.42;;;8.70;99.90;;;;;;4980863;28;20037;-86
2022/11/03 04:24:57;;;;;;;14.15;3.13;;;8.80;99.90;;;;;;4975484;28;20050;-85
2022/11/03 04:27:35;;;;;;;16.35;2.85;;;8.80;99.90;;;;;;4980793;28;20049;-85
2022/11/03 04:30:00;;;;;;;12.35;3.03;;;8.80;99.90;;;;;;4979662;28;20089;-86
2022/11/03 04:32:27;;;;;;;25.23;4.13;;;8.80;99.90;;;;;;4967744;28;20536;-84
2022/11/03 04:34:53;;;;;;;14.80;2.75;;;8.80;99.90;;;;;;4995562;28;20030;-85
2022/11/03 04:37:19;;;;;;;22.25;3.00;;;8.80;99.90;;;;;;5004042;28;20034;-85
2022/11/03 04:39:44;;;;;;;18.45;3.88;;;8.70;99.90;;;;;;4999860;28;20281;-85
2022/11/03 04:42:20;;;;;;;22.17;3.60;;;8.80;99.90;;;;;;4995371;28;20435;-83
2022/11/03 04:44:47;;;;;;;23.42;3.85;;;8.80;99.90;;;;;;5005483;28;20483;-87
2022/11/03 04:47:15;;;;;;;17.25;3.65;;;8.80;99.90;;;;;;4998825;28;20096;-86
2022/11/03 04:49:42;;;;;;;21.02;3.13;;;8.90;99.90;;;;;;4999876;28;20026;-83
2022/11/03 04:52:20;;;;;;;21.15;5.25;;;8.90;99.90;;;;;;5005685;28;20383;-81
2022/11/03 04:54:48;;;;;;;12.38;3.30;;;8.90;99.90;;;;;;4998757;28;20041;-84
2022/11/03 04:57:15;;;;;;;26.60;4.07;;;9.00;99.90;;;;;;5001122;28;20484;-87
2022/11/03 04:59:42;;;;;;;18.67;3.80;;;9.00;99.90;;;;;;4995577;28;20113;-83
2022/11/03 05:02:14;;;;;;;18.50;3.53;;;9.00;99.90;;;;;;4995641;28;20076;-86
2022/11/03 05:04:41;;;;;;;22.88;3.97;;;8.90;99.90;;;;;;4998389;28;20037;-83
2022/11/03 05:07:35;;;;;;;18.02;3.53;;;8.90;99.90;;;;;;5001289;28;20046;-82
2022/11/03 05:10:03;;;;;;;17.80;3.38;;;9.00;99.90;;;;;;4999125;28;20062;-83
2022/11/03 05:12:29;;;;;;;17.30;3.10;;;8.90;99.90;;;;;;4989858;28;20056;-86
2022/11/03 05:14:55;;;;;;;19.70;4.78;;;9.00;99.90;;;;;;5004393;28;20156;-86
2022/11/03 05:17:27;;;;;;;24.05;3.17;;;9.00;99.90;;;;;;5005090;28;20756;-84
2022/11/03 05:20:02;;;;;;;17.40;3.10;;;9.00;99.90;;;;;;5004521;28;20061;-84
2022/11/03 05:22:34;;;;;;;14.90;2.72;;;9.00;99.90;;;;;;4998750;28;20046;-84
2022/11/03 05:25:05;;;;;;;25.33;5.05;;;9.00;99.90;;;;;;5001336;28;20081;-84
2022/11/03 05:27:31;;;;;;;14.85;3.15;;;9.10;99.90;;;;;;4994653;28;20120;-86
2022/11/03 05:29:59;;;;;;;22.58;3.85;;;9.00;99.90;;;;;;4985051;28;20130;-83
2022/11/03 05:32:32;;;;;;;14.50;3.38;;;9.00;99.90;;;;;;5000567;28;20022;-84
2022/11/03 05:34:57;;;;;;;13.55;3.00;;;9.00;99.90;;;;;;4978331;28;20503;-84
2022/11/03 05:37:35;;;;;;;10.25;2.83;;;9.00;99.90;;;;;;4982546;28;20065;-84
2022/11/03 05:40:24;;;;;;;24.00;3.63;;;9.00;99.90;;;;;;4983289;28;20089;-84
2022/11/03 05:43:03;;;;;;;24.52;6.63;;;9.00;99.90;;;;;;4985508;28;20114;-83
2022/11/03 05:45:33;;;;;;;24.10;3.08;;;9.00;99.90;;;;;;4980997;28;20096;-85
2022/11/03 05:48:01;;;;;;;33.03;3.28;;;9.10;99.90;;;;;;4981251;28;20050;-84
2022/11/03 05:50:34;;;;;;;13.88;2.58;;;9.10;99.90;;;;;;4979660;28;20035;-89
2022/11/03 05:53:22;;;;;;;15.25;2.97;;;9.20;99.90;;;;;;4984871;28;20061;-83
2022/11/03 05:55:48;;;;;;;25.55;3.13;;;9.20;99.90;;;;;;4984917;28;20026;-83
2022/11/03 05:58:36;;;;;;;12.02;2.88;;;9.20;99.90;;;;;;4987277;28;20218;-88
2022/11/03 06:01:09;;;;;;;25.30;4.32;;;9.20;99.90;;;;;;4978474;28;20038;-84
2022/11/03 06:03:35;;;;;;;25.13;5.05;;;9.20;99.90;;;;;;4981979;28;20125;-84
2022/11/03 06:06:09;;;;;;;17.25;3.13;;;9.20;99.90;;;;;;4988103;28;20022;-84
2022/11/03 06:08:35;;;;;;;16.88;3.28;;;9.20;99.90;;;;;;4984661;28;20039;-84
2022/11/03 06:11:03;;;;;;;13.60;3.13;;;9.10;99.90;;;;;;4989015;28;20030;-85
2022/11/03 06:13:38;;;;;;;19.50;3.40;;;9.20;99.90;;;;;;4987059;28;20120;-85
2022/11/03 06:16:05;;;;;;;20.33;3.00;;;9.20;99.90;;;;;;4989395;28;20034;-84
2022/11/03 06:18:35;;;;;;;20.95;4.78;;;9.10;99.90;;;;;;4988657;28;20081;-84
2022/11/03 06:21:12;;;;;;;13.77;3.38;;;9.20;99.90;;;;;;4988669;28;20788;-85
2022/11/03 06:23:39;;;;;;;19.05;4.65;;;9.20;99.90;;;;;;4991151;28;20034;-85
2022/11/03 06:26:17;;;;;;;18.73;3.17;;;9.20;99.90;;;;;;4989338;28;20036;-85
2022/11/03 06:28:42;;;;;;;26.63;3.88;;;9.20;99.90;;;;;;4986672;28;20048;-88
2022/11/03 06:31:19;;;;;;;14.95;4.45;;;9.30;99.90;;;;;;4989703;28;20034;-84
2022/11/03 06:33:45;;;;;;;23.73;3.38;;;9.30;99.90;;;;;;4997001;28;20392;-85
2022/11/03 06:36:17;;;;;;;18.00;3.65;;;9.20;99.90;;;;;;5004245;28;20060;-87
2022/11/03 06:38:56;;;;;;;14.13;3.35;;;9.20;99.90;;;;;;5004183;28;20037;-83
2022/11/03 06:41:30;;;;;;;15.70;3.38;;;9.30;99.90;;;;;;5007019;28;20057;-85
2022/11/03 06:44:00;;;;;;;20.13;3.42;;;9.20;99.90;;;;;;5005907;28;20499;-87
2022/11/03 06:46:26;;;;;;;20.73;3.03;;;9.30;99.90;;;;;;5008104;28;20026;-86
2022/11/03 06:48:53;;;;;;;24.80;3.13;;;9.30;99.90;;;;;;4992731;28;20045;-86
2022/11/03 06:51:29;;;;;;;15.75;3.35;;;9.30;99.90;;;;;;5003120;28;20033;-84
2022/11/03 06:53:58;;;;;;;;;;;9.30;99.90;;;;;;5006659;28;20526;-87
2022/11/03 06:56:35;;;;;;;23.73;3.70;;;9.30;99.90;;;;;;5004865;28;20451;-85
2022/11/03 06:59:01;;;;;;;19.27;3.72;;;9.30;99.90;;;;;;5003618;28;20060;-84
2022/11/03 07:01:38;;;;;;;15.57;2.95;;;9.30;99.90;;;;;;5002977;28;20432;-84
2022/11/03 07:04:22;;;;;;;16.33;3.25;;;9.30;99.90;;;;;;4987778;28;20045;-85
2022/11/03 07:06:48;;;;;;;15.65;3.50;;;9.30;99.90;;;;;;5005673;28;20030;-85
2022/11/03 07:09:34;;;;;;;31.77;3.95;;;9.30;99.90;;;;;;5005996;28;20403;-86
2022/11/03 07:12:00;;;;;;;17.83;3.05;;;9.30;99.90;;;;;;5005160;28;20411;-82
2022/11/03 07:14:37;;;;;;;25.10;4.78;;;9.40;99.90;;;;;;5010802;28;20038;-85
2022/11/03 07:17:16;;;;;;;14.48;3.05;;;9.40;99.90;;;;;;5011313;28;20041;-85
2022/11/03 07:19:44;;;;;;;23.33;4.47;;;9.50;99.90;;;;;;5007104;28;20057;-84
2022/11/03 07:22:21;;;;;;;16.77;3.70;;;9.50;99.90;;;;;;5010843;28;20030;-85
2022/11/03 07:24:58;;;;;;;25.95;3.17;;;9.50;99.90;;;;;;5010546;28;20376;-85
2022/11/03 07:27:37;;;;;;;34.42;4.10;;;9.60;99.90;;;;;;5002673;28;20057;-86
2022/11/03 07:30:33;;;;;;;20.25;4.10;;;9.60;99.90;;;;;;5009203;28;20160;-86
2022/11/03 07:33:15;;;;;;;12.15;3.63;;;9.70;99.90;;;;;;5005485;28;20077;-84
2022/11/03 07:35:43;;;;;;;20.08;3.97;;;9.70;99.90;;;;;;4988613;28;20136;-85
2022/11/03 07:38:16;;;;;;;17.67;3.08;;;9.80;99.90;;;;;;4985052;28;20030;-86
2022/11/03 07:40:52;;;;;;;12.80;3.13;;;9.80;99.90;;;;;;4988069;28;20039;-86
2022/11/03 07:43:23;;;;;;;19.65;3.50;;;9.80;99.90;;;;;;4982139;28;20042;-85
2022/11/03 07:45:51;;;;;;;16.42;2.63;;;9.90;99.90;;;;;;4987679;28;20034;-86
2022/11/03 07:48:18;;;;;;;13.07;2.97;;;9.90;99.90;;;;;;4986312;28;20042;-86
2022/11/03 07:50:45;;;;;;;17.95;2.90;;;10.00;99.90;;;;;;4989716;28;20026;-84
2022/11/03 07:53:17;;;;;;;20.85;4.70;;;10.10;99.90;;;;;;4991017;28;20045;-84
2022/11/03 07:55:45;;;;;;;15.57;2.45;;;10.10;99.90;;;;;;4966842;28;20034;-85
2022/11/03 07:58:22;;;;;;;25.00;4.00;;;10.10;99.90;;;;;;4988326;28;20026;-85
2022/11/03 08:00:48;;;;;;;13.82;3.17;;;10.10;99.90;;;;;;4988095;28;20064;-85
2022/11/03 08:03:43;;;;;;;18.55;3.70;;;10.10;99.90;;;;;;4988992;28;20109;-85
2022/11/03 08:06:08;;;;;;;12.77;2.63;;;10.10;99.90;;;;;;4986952;28;20050;-86
2022/11/03 08:08:40;;;;;;;15.35;2.88;;;10.20;99.90;;;;;;4990228;28;20484;-86
2022/11/03 08:11:06;;;;;;;16.90;3.80;;;10.20;99.90;;;;;;4990586;28;20034;-86
2022/11/03 08:13:41;;;;;;;13.75;2.83;;;10.20;99.90;;;;;;4989477;28;20480;-85
2022/11/03 08:16:07;;;;;;;21.30;3.20;;;10.20;99.90;;;;;;4986592;28;20030;-85
2022/11/03 08:18:42;;;;;;;13.95;2.83;;;10.20;99.90;;;;;;4990237;28;20035;-86
2022/11/03 08:21:07;;;;;;;16.87;2.47;;;10.20;99.90;;;;;;4990694;28;20022;-85
2022/11/03 08:23:39;;;;;;;19.25;3.45;;;10.20;99.90;;;;;;4989732;28;20487;-85
2022/11/03 08:26:05;;;;;;;14.07;2.90;;;10.20;99.90;;;;;;4985559;28;20037;-87
2022/11/03 08:28:37;;;;;;;12.25;3.15;;;10.10;99.90;;;;;;4990157;28;20034;-86
2022/11/03 08:31:05;;;;;;;12.77;3.40;;;10.20;99.90;;;;;;4990042;28;20034;-86
2022/11/03 08:33:34;;;;;;;18.13;3.75;;;10.20;99.90;;;;;;4996429;28;20050;-85
2022/11/03 08:36:01;;;;;;;11.25;2.30;;;10.20;99.90;;;;;;4994422;28;20045;-86
2022/11/03 08:38:27;;;;;;;13.70;2.72;;;10.30;99.90;;;;;;4990724;28;20037;-88
2022/11/03 08:40:54;;;;;;;22.95;3.30;;;10.30;99.90;;;;;;4990794;28;20058;-85
2022/11/03 08:43:20;;;;;;;16.45;3.85;;;10.40;99.90;;;;;;4990048;28;20382;-86
2022/11/03 08:45:45;;;;;;;22.33;3.08;;;10.40;99.90;;;;;;4980841;28;20198;-86
2022/11/03 08:48:11;;;;;;;8.77;2.30;;;10.40;99.90;;;;;;4977078;28;20121;-86
2022/11/03 08:50:43;;;;;;;14.55;2.83;;;10.40;99.90;;;;;;4991737;28;20487;-86
2022/11/03 08:53:09;;;;;;;15.65;3.15;;;10.50;99.90;;;;;;5005427;28;20436;-86
2022/11/03 08:55:40;;;;;;;10.80;2.60;;;10.50;99.90;;;;;;4989163;28;20076;-83
2022/11/03 08:58:06;;;;;;;17.38;3.90;;;10.60;99.90;;;;;;5002414;28;20539;-86
2022/11/03 09:00:38;;;;;;;12.18;3.22;;;10.60;99.90;;;;;;5008873;28;20121;-85
2022/11/03 09:03:03;;;;;;;12.77;2.88;;;10.70;99.90;;;;;;5008739;28;20038;-84
2022/11/03 09:05:32;;;;;;;26.10;4.20;;;10.70;99.90;;;;;;5008632;28;20100;-81
2022/11/03 09:07:58;;;;;;;16.33;4.63;;;10.80;99.90;;;;;;4990753;28;20033;-86
2022/11/03 09:10:24;;;;;;;11.38;3.22;;;10.80;99.90;;;;;;5002928;28;20018;-85
2022/11/03 09:12:50;;;;;;;8.30;2.20;;;10.80;99.90;;;;;;4996834;28;20066;-85
2022/11/03 09:15:16;;;;;;;24.63;3.92;;;10.90;99.90;;;;;;4995449;28;20061;-85
2022/11/03 09:17:44;;;;;;;17.10;3.83;;;10.90;99.90;;;;;;4988043;28;20124;-85
2022/11/03 09:20:10;;;;;;;21.52;3.70;;;11.00;99.90;;;;;;4989249;28;20034;-86
2022/11/03 09:22:44;;;;;;;17.35;5.00;;;11.00;99.90;;;;;;4989047;28;20487;-85
2022/11/03 09:25:10;;;;;;;10.82;2.85;;;11.00;99.90;;;;;;4989082;28;20023;-86
2022/11/03 09:27:45;;;;;;;11.63;3.05;;;11.20;99.90;;;;;;4988182;28;20116;-85
2022/11/03 09:30:12;;;;;;;28.90;4.50;;;11.20;99.90;;;;;;5003403;28;20037;-89
2022/11/03 09:32:38;;;;;;;22.85;3.67;;;11.30;99.90;;;;;;4989140;28;20030;-84
2022/11/03 09:35:05;;;;;;;12.05;2.78;;;11.30;99.90;;;;;;5008327;28;20106;-87
2022/11/03 09:37:34;;;;;;;16.77;3.53;;;11.30;99.90;;;;;;5012363;28;20045;-85
2022/11/03 09:39:59;;;;;;;13.02;2.90;;;11.30;99.90;;;;;;5008730;28;20053;-87
2022/11/03 09:42:25;;;;;;;21.88;3.47;;;11.40;99.90;;;;;;4990346;28;20440;-86
2022/11/03 09:44:53;;;;;;;14.95;2.30;;;11.40;99.90;;;;;;5008077;28;20035;-86
2022/11/03 09:47:41;;;;;;;9.32;2.65;;;11.50;99.90;;;;;;5008206;28;20045;-86
2022/11/03 09:50:14;;;;;;;16.45;3.15;;;11.50;99.90;;;;;;5003491;28;20027;-86
2022/11/03 09:52:46;;;;;;;11.75;3.15;;;11.50;99.90;;;;;;5002810;28;20053;-83
2022/11/03 09:55:18;;;;;;;16.98;3.47;;;11.60;99.90;;;;;;5006472;28;20030;-87
2022/11/03 09:57:45;;;;;;;13.48;2.95;;;11.60;99.90;;;;;;4991939;28;20340;-86
2022/11/03 10:00:17;;;;;;;12.50;3.22;;;11.60;99.90;;;;;;4998700;28;20479;-82
2022/11/03 10:02:46;;;;;;;16.05;2.92;;;11.60;99.90;;;;;;4997521;28;20045;-85
2022/11/03 10:05:15;;;;;;;12.73;3.10;;;11.70;99.90;;;;;;4998056;28;20033;-86
2022/11/03 10:07:46;;;;;;;14.07;2.78;;;11.70;99.90;;;;;;5001981;28;20411;-85
2022/11/03 10:10:21;;;;;;;10.10;2.78;;;11.70;99.90;;;;;;5008075;28;20040;-86
2022/11/03 10:12:52;;;;;;;10.93;3.70;;;11.70;99.90;;;;;;5003529;28;20088;-88
2022/11/03 10:15:19;;;;;;;20.50;3.50;;;11.80;99.90;;;;;;4998210;28;20549;-84
2022/11/03 10:17:45;;;;;;;9.55;3.53;;;11.80;99.90;;;;;;5002461;28;20080;-85
2022/11/03 10:20:13;;;;;;;16.88;3.30;;;11.80;99.90;;;;;;4994782;28;20031;-86
2022/11/03 10:22:46;;;;;;;19.90;3.55;;;11.80;99.90;;;;;;5004883;28;20032;-86
2022/11/03 10:25:38;;;;;;;8.60;3.20;;;11.80;99.90;;;;;;4998318;28;20026;-85
2022/11/03 10:28:11;;;;;;;13.15;3.75;;;11.80;99.90;;;;;;5004087;28;20459;-86
2022/11/03 10:31:19;;;;;;;10.35;3.15;;;11.90;99.90;;;;;;4994449;28;20030;-87
2022/11/03 10:33:57;;;;;;;15.60;3.70;;;11.80;99.90;;;;;;4998646;28;20077;-85
2022/11/03 10:36:25;;;;;;;16.63;3.55;;;12.00;99.90;;;;;;5000858;28;20041;-85
2022/11/03 10:38:51;;;;;;;12.35;2.75;;;12.00;99.90;;;;;;5005771;28;20034;-85
2022/11/03 10:41:25;;;;;;;8.43;2.22;;;12.00;99.90;;;;;;5007026;28;20116;-87
2022/11/03 10:44:18;;;;;;;13.90;3.25;;;12.00;99.90;;;;;;5004803;28;20876;-83
2022/11/03 10:47:02;;;;;;;11.52;3.85;;;12.00;99.90;;;;;;5005424;28;20081;-86
2022/11/03 10:49:46;;;;;;;16.60;4.63;;;12.10;99.90;;;;;;5001363;28;20096;-86
2022/11/03 10:52:21;;;;;;;12.57;3.05;;;12.10;99.90;;;;;;5005998;28;20507;-85
2022/11/03 10:54:57;;;;;;;;;;;12.10;99.90;;;;;;5011553;28;20042;-85
2022/11/03 10:57:24;;;;;;;11.85;2.90;;;12.10;99.90;;;;;;5010501;28;19941;-87
2022/11/03 10:59:52;;;;;;;11.13;2.83;;;12.20;99.90;;;;;;5010630;28;20042;-85
2022/11/03 11:02:41;;;;;;;9.38;2.78;;;12.20;99.90;;;;;;5006893;28;20387;-83
2022/11/03 11:05:20;;;;;;;9.43;2.63;;;12.30;99.90;;;;;;5004238;28;20062;-85
2022/11/03 11:07:47;;;;;;;13.80;2.35;;;12.30;99.90;;;;;;5010091;28;20515;-85
2022/11/03 11:10:12;;;;;;;9.32;2.65;;;12.30;99.90;;;;;;5010998;28;20026;-87
2022/11/03 11:13:00;;;;;;;15.23;2.72;;;12.30;99.90;;;;;;5009729;28;20034;-84
2022/11/03 11:15:41;;;;;;;10.15;2.35;;;12.30;99.90;;;;;;5007060;28;20033;-85
2022/11/03 11:18:07;;;;;;;6.63;2.20;;;12.30;99.90;;;;;;5011022;28;20022;-86
2022/11/03 11:20:40;;;;;;;14.15;4.13;;;12.30;99.90;;;;;;5009933;28;20235;-85
2022/11/03 11:23:36;;;;;;;12.73;2.45;;;12.40;99.90;;;;;;5008927;28;20411;-85
2022/11/03 11:26:08;;;;;;;14.77;2.72;;;12.40;99.90;;;;;;5006989;28;20018;-86
2022/11/03 11:28:41;;;;;;;12.90;2.47;;;12.40;99.90;;;;;;5006949;28;20073;-86
2022/11/03 11:31:25;;;;;;;11.00;2.67;;;12.50;99.90;;;;;;5010161;28;20029;-85
2022/11/03 11:34:18;;;;;;;13.38;2.80;;;12.50;99.90;;;;;;5006078;28;20537;-85
2022/11/03 11:36:53;;;;;;;15.77;2.50;;;12.60;99.90;;;;;;4973019;28;20042;-86
2022/11/03 11:39:29;;;;;;;11.68;3.10;;;12.60;99.90;;;;;;5007299;28;20042;-85
2022/11/03 11:42:18;;;;;;;9.68;3.22;;;12.60;99.90;;;;;;5009183;28;20422;-85
2022/11/03 11:47:20;;;;;;;13.27;3.20;;;12.60;99.90;;;;;;5008391;28;20132;-85
2022/11/03 11:49:46;;;;;;;12.93;2.83;;;12.60;99.90;;;;;;5009443;28;20131;-86
2022/11/03 11:52:12;;;;;;;7.65;2.50;;;12.70;99.90;;;;;;5008167;28;20030;-87
2022/11/03 11:54:49;;;;;;;7.35;2.58;;;12.60;99.90;;;;;;5009183;28;20056;-85
2022/11/03 11:57:18;;;;;;;15.15;3.00;;;12.60;99.90;;;;;;5008167;28;20491;-86
2022/11/03 11:59:50;;;;;;;13.50;2.72;;;12.60;99.90;;;;;;5008578;28;20030;-85
2022/11/03 12:02:22;;;;;;;9.38;2.35;;;12.60;99.90;;;;;;5006815;28;20491;-85
2022/11/03 12:05:00;;;;;;;9.07;2.30;;;12.60;99.90;;;;;;5009839;28;20113;-85
2022/11/03 12:07:55;;;;;;;8.95;1.92;;;12.60;99.90;;;;;;5005788;28;20045;-85
2022/11/03 12:10:24;;;;;;;12.90;2.83;;;12.60;99.90;;;;;;5007360;28;20554;-87
2022/11/03 12:13:00;;;;;;;10.55;2.60;;;12.70;99.90;;;;;;4994960;28;20049;-85
2022/11/03 12:15:45;;;;;;;;;;;12.70;99.90;;;;;;5007942;28;20026;-84
2022/11/03 12:18:42;;;;;;;9.30;2.72;;;12.60;99.90;;;;;;5006044;28;20409;-86
2022/11/03 12:21:10;;;;;;;13.40;3.08;;;12.50;99.90;;;;;;5002983;28;20089;-86
2022/11/03 12:23:48;;;;;;;16.92;3.22;;;12.50;99.90;;;;;;5006918;28;20038;-86
2022/11/03 12:26:15;;;;;;;10.50;3.35;;;12.50;99.90;;;;;;5009387;28;20025;-86
2022/11/03 12:28:44;;;;;;;7.22;2.42;;;12.50;99.90;;;;;;5007556;28;20046;-85
2022/11/03 12:31:12;;;;;;;11.90;2.65;;;12.50;99.90;;;;;;5009221;28;20030;-83
2022/11/03 12:33:47;;;;;;;9.68;2.97;;;12.50;99.90;;;;;;5007637;28;20073;-86
2022/11/03 12:36:12;;;;;;;13.27;2.90;;;12.50;99.90;;;;;;5007763;28;20502;-86
2022/11/03 12:38:41;;;;;;;8.73;2.53;;;12.60;99.90;;;;;;5005779;28;20029;-85
2022/11/03 12:41:23;;;;;;;8.70;2.03;;;12.50;99.90;;;;;;5004872;28;20030;-86
2022/11/03 12:43:52;;;;;;;8.02;2.10;;;12.50;99.90;;;;;;5009616;28;20034;-86
2022/11/03 12:46:19;;;;;;;7.43;1.98;;;12.50;99.90;;;;;;5003437;28;20076;-86
2022/11/03 12:48:46;;;;;;;19.63;4.07;;;12.50;99.90;;;;;;5004142;28;20476;-86
2022/11/03 12:51:14;;;;;;;15.40;3.40;;;12.50;99.90;;;;;;5006474;28;20026;-87
2022/11/03 12:53:46;;;;;;;9.63;2.20;;;12.60;99.90;;;;;;5009253;28;20025;-86
2022/11/03 12:56:13;;;;;;;5.15;1.70;;;12.60;99.90;;;;;;5007309;28;20037;-86
2022/11/03 12:58:51;;;;;;;14.13;2.28;;;12.60;99.90;;;;;;5008799;28;20040;-85
2022/11/03 13:01:17;;;;;;;9.70;3.22;;;12.60;99.90;;;;;;5006717;28;20028;-85
2022/11/03 13:03:46;;;;;;;5.40;2.03;;;12.60;99.90;;;;;;5008316;28;20029;-85
2022/11/03 13:06:13;;;;;;;7.07;2.17;;;12.60;99.90;;;;;;5008780;28;20030;-86
2022/11/03 13:08:42;;;;;;;12.98;2.35;;;12.70;99.90;;;;;;5006429;28;20056;-85
2022/11/03 13:12:30;;;;;;;11.30;3.10;;;12.70;99.90;;;;;;5008631;28;20484;-86
2022/11/03 13:13:53;;;;;;;8.23;1.95;;;12.70;99.90;;;;;;5004679;28;20471;-86
2022/11/03 13:16:22;;;;;;;6.70;2.45;;;12.70;99.90;;;;;;4998632;28;20164;-82
2022/11/03 13:19:23;;;;;;;15.50;3.25;;;12.70;99.90;;;;;;5004552;28;20038;-86
2022/11/03 13:21:54;;;;;;;7.05;2.20;;;12.70;99.90;;;;;;4978199;28;20039;-86
2022/11/03 13:24:20;;;;;;;15.25;2.72;;;12.70;99.90;;;;;;5008112;28;20065;-87
2022/11/03 13:26:45;;;;;;;6.20;2.55;;;12.70;99.90;;;;;;4999646;28;20065;-84